sensor_id;sensor_type;location;lat;lon;timestamp;P1;durP1;ratioP1;P2;durP2;ratioP2
58101;SDS011;52034;51.926;6.320;2022-08-11T00:00:32;6.15;;;3.10;;
58101;SDS011;52034;51.926;6.320;2022-08-11T00:01:54;4.55;;;3.10;;
58101;SDS011;52034;51.926;6.320;2022-08-11T00:03:13;3.65;;;3.15;;
58101;SDS011;52034;51.926;6.320;2022-08-11T00:04:34;3.58;;;3.28;;
58101;SDS011;52034;51.926;6.320;2022-08-11T00:05:54;6.82;;;3.28;;
58101;SDS011;52034;51.926;6.320;2022-08-11T00:07:14;5.40;;;3.08;;
58101;SDS011;52034;51.926;6.320;2022-08-11T00:08:33;5.07;;;3.05;;
58101;SDS011;52034;51.926;6.320;2022-08-11T00:09:52;5.75;;;3.25;;
58101;SDS011;52034;51.926;6.320;2022-08-11T00:11:12;5.68;;;3.30;;
58101;SDS011;52034;51.926;6.320;2022-08-11T00:12:34;5.45;;;3.05;;
58101;SDS011;52034;51.926;6.320;2022-08-11T00:13:53;3.42;;;3.13;;
58101;SDS011;52034;51.926;6.320;2022-08-11T00:15:12;5.25;;;3.08;;
58101;SDS011;52034;51.926;6.320;2022-08-11T00:16:31;5.95;;;3.20;;
58101;SDS011;52034;51.926;6.320;2022-08-11T00:18:00;4.30;;;3.25;;
58101;SDS011;52034;51.926;6.320;2022-08-11T00:19:21;6.13;;;3.38;;
58101;SDS011;52034;51.926;6.320;2022-08-11T00:20:42;4.47;;;3.15;;
58101;SDS011;52034;51.926;6.320;2022-08-11T00:22:02;6.00;;;3.28;;
58101;SDS011;52034;51.926;6.320;2022-08-11T00:23:22;7.75;;;3.10;;
58101;SDS011;52034;51.926;6.320;2022-08-11T00:24:41;4.40;;;3.00;;
58101;SDS011;52034;51.926;6.320;2022-08-11T00:26:00;7.30;;;3.05;;
58101;SDS011;52034;51.926;6.320;2022-08-11T00:27:31;3.28;;;2.90;;
58101;SDS011;52034;51.926;6.320;2022-08-11T00:28:51;7.68;;;3.55;;
58101;SDS011;52034;51.926;6.320;2022-08-11T00:30:11;5.55;;;3.33;;
58101;SDS011;52034;51.926;6.320;2022-08-11T00:31:30;6.35;;;3.65;;
58101;SDS011;52034;51.926;6.320;2022-08-11T00:32:56;3.70;;;2.97;;
58101;SDS011;52034;51.926;6.320;2022-08-11T00:34:17;5.82;;;3.08;;
58101;SDS011;52034;51.926;6.320;2022-08-11T00:35:39;4.63;;;2.88;;
58101;SDS011;52034;51.926;6.320;2022-08-11T00:36:59;4.30;;;3.25;;
58101;SDS011;52034;51.926;6.320;2022-08-11T00:38:22;3.88;;;3.20;;
58101;SDS011;52034;51.926;6.320;2022-08-11T00:39:44;3.88;;;3.40;;
58101;SDS011;52034;51.926;6.320;2022-08-11T00:42:49;7.05;;;3.88;;
58101;SDS011;52034;51.926;6.320;2022-08-11T00:44:21;5.88;;;3.15;;
58101;SDS011;52034;51.926;6.320;2022-08-11T00:45:41;5.88;;;3.60;;
58101;SDS011;52034;51.926;6.320;2022-08-11T00:47:16;6.47;;;3.25;;
58101;SDS011;52034;51.926;6.320;2022-08-11T00:48:58;5.47;;;3.45;;
58101;SDS011;52034;51.926;6.320;2022-08-11T00:54:35;4.38;;;3.00;;
58101;SDS011;52034;51.926;6.320;2022-08-11T01:00:31;5.88;;;3.42;;
58101;SDS011;52034;51.926;6.320;2022-08-11T01:01:57;7.50;;;3.38;;
58101;SDS011;52034;51.926;6.320;2022-08-11T01:03:34;4.28;;;3.25;;
58101;SDS011;52034;51.926;6.320;2022-08-11T01:12:34;6.55;;;3.50;;
58101;SDS011;52034;51.926;6.320;2022-08-11T01:18:43;4.93;;;3.40;;
58101;SDS011;52034;51.926;6.320;2022-08-11T01:25:51;4.80;;;3.35;;
58101;SDS011;52034;51.926;6.320;2022-08-11T01:29:16;5.28;;;3.35;;
58101;SDS011;52034;51.926;6.320;2022-08-11T01:42:49;9.00;;;3.80;;
58101;SDS011;52034;51.926;6.320;2022-08-11T01:44:37;4.47;;;3.22;;
58101;SDS011;52034;51.926;6.320;2022-08-11T01:54:52;5.80;;;3.67;;
58101;SDS011;52034;51.926;6.320;2022-08-11T01:56:26;6.55;;;3.53;;
58101;SDS011;52034;51.926;6.320;2022-08-11T01:59:34;8.32;;;3.88;;
58101;SDS011;52034;51.926;6.320;2022-08-11T02:02:31;4.57;;;3.80;;
58101;SDS011;52034;51.926;6.320;2022-08-11T02:11:51;6.03;;;4.00;;
58101;SDS011;52034;51.926;6.320;2022-08-11T02:13:19;5.25;;;3.75;;
58101;SDS011;52034;51.926;6.320;2022-08-11T02:15:02;5.97;;;3.83;;
58101;SDS011;52034;51.926;6.320;2022-08-11T02:18:32;6.50;;;4.15;;
58101;SDS011;52034;51.926;6.320;2022-08-11T02:20:27;4.45;;;3.67;;
58101;SDS011;52034;51.926;6.320;2022-08-11T02:22:12;4.50;;;3.40;;
58101;SDS011;52034;51.926;6.320;2022-08-11T02:24:02;5.47;;;3.92;;
58101;SDS011;52034;51.926;6.320;2022-08-11T02:25:29;7.65;;;3.88;;
58101;SDS011;52034;51.926;6.320;2022-08-11T02:26:58;6.20;;;4.07;;
58101;SDS011;52034;51.926;6.320;2022-08-11T02:28:30;7.05;;;3.72;;
58101;SDS011;52034;51.926;6.320;2022-08-11T02:30:01;9.30;;;4.35;;
58101;SDS011;52034;51.926;6.320;2022-08-11T02:31:28;6.13;;;4.10;;
58101;SDS011;52034;51.926;6.320;2022-08-11T02:33:21;6.47;;;4.13;;
58101;SDS011;52034;51.926;6.320;2022-08-11T02:42:03;5.28;;;4.05;;
58101;SDS011;52034;51.926;6.320;2022-08-11T02:43:44;4.00;;;3.60;;
58101;SDS011;52034;51.926;6.320;2022-08-11T02:46:37;7.07;;;4.10;;
58101;SDS011;52034;51.926;6.320;2022-08-11T02:50:27;3.88;;;3.45;;
58101;SDS011;52034;51.926;6.320;2022-08-11T02:59:59;7.53;;;4.05;;
58101;SDS011;52034;51.926;6.320;2022-08-11T03:01:27;6.53;;;3.70;;
58101;SDS011;52034;51.926;6.320;2022-08-11T03:09:39;6.03;;;4.18;;
58101;SDS011;52034;51.926;6.320;2022-08-11T03:11:08;4.38;;;3.97;;
58101;SDS011;52034;51.926;6.320;2022-08-11T03:14:45;4.30;;;3.95;;
58101;SDS011;52034;51.926;6.320;2022-08-11T03:21:41;6.32;;;4.18;;
58101;SDS011;52034;51.926;6.320;2022-08-11T03:25:28;7.00;;;4.28;;
58101;SDS011;52034;51.926;6.320;2022-08-11T03:27:49;5.63;;;3.75;;
58101;SDS011;52034;51.926;6.320;2022-08-11T03:29:15;6.88;;;4.50;;
58101;SDS011;52034;51.926;6.320;2022-08-11T03:31:59;6.28;;;4.47;;
58101;SDS011;52034;51.926;6.320;2022-08-11T03:33:32;5.57;;;4.25;;
58101;SDS011;52034;51.926;6.320;2022-08-11T03:35:16;7.15;;;4.40;;
58101;SDS011;52034;51.926;6.320;2022-08-11T03:36:52;8.23;;;4.10;;
58101;SDS011;52034;51.926;6.320;2022-08-11T03:38:18;4.63;;;4.10;;
58101;SDS011;52034;51.926;6.320;2022-08-11T03:40:02;6.05;;;4.22;;
58101;SDS011;52034;51.926;6.320;2022-08-11T03:41:31;6.25;;;4.22;;
58101;SDS011;52034;51.926;6.320;2022-08-11T03:43:16;6.72;;;4.43;;
58101;SDS011;52034;51.926;6.320;2022-08-11T03:49:55;6.07;;;4.32;;
58101;SDS011;52034;51.926;6.320;2022-08-11T03:51:24;5.13;;;4.45;;
58101;SDS011;52034;51.926;6.320;2022-08-11T03:52:50;6.80;;;4.15;;
58101;SDS011;52034;51.926;6.320;2022-08-11T03:58:14;5.28;;;4.78;;
58101;SDS011;52034;51.926;6.320;2022-08-11T04:00:00;7.80;;;5.00;;
58101;SDS011;52034;51.926;6.320;2022-08-11T04:17:31;6.25;;;4.93;;
58101;SDS011;52034;51.926;6.320;2022-08-11T04:19:07;6.55;;;4.90;;
58101;SDS011;52034;51.926;6.320;2022-08-11T04:23:34;5.45;;;4.55;;
58101;SDS011;52034;51.926;6.320;2022-08-11T04:25:48;5.72;;;4.13;;
58101;SDS011;52034;51.926;6.320;2022-08-11T04:37:18;5.65;;;4.80;;
58101;SDS011;52034;51.926;6.320;2022-08-11T04:49:50;8.30;;;5.45;;
58101;SDS011;52034;51.926;6.320;2022-08-11T04:57:04;7.15;;;5.15;;
58101;SDS011;52034;51.926;6.320;2022-08-11T05:00:55;7.30;;;5.20;;
58101;SDS011;52034;51.926;6.320;2022-08-11T05:06:25;6.95;;;5.57;;
58101;SDS011;52034;51.926;6.320;2022-08-11T05:08:17;6.57;;;5.35;;
58101;SDS011;52034;51.926;6.320;2022-08-11T05:14:13;8.43;;;5.53;;
58101;SDS011;52034;51.926;6.320;2022-08-11T05:15:43;7.63;;;5.68;;
58101;SDS011;52034;51.926;6.320;2022-08-11T05:17:26;8.80;;;5.60;;
58101;SDS011;52034;51.926;6.320;2022-08-11T05:19:18;5.90;;;5.28;;
58101;SDS011;52034;51.926;6.320;2022-08-11T05:20:56;7.43;;;5.43;;
58101;SDS011;52034;51.926;6.320;2022-08-11T05:22:34;13.60;;;6.05;;
58101;SDS011;52034;51.926;6.320;2022-08-11T05:24:16;7.07;;;5.43;;
58101;SDS011;52034;51.926;6.320;2022-08-11T05:25:58;8.27;;;6.05;;
58101;SDS011;52034;51.926;6.320;2022-08-11T05:27:39;7.97;;;5.88;;
58101;SDS011;52034;51.926;6.320;2022-08-11T05:29:30;7.32;;;5.47;;
58101;SDS011;52034;51.926;6.320;2022-08-11T05:31:17;6.53;;;5.15;;
58101;SDS011;52034;51.926;6.320;2022-08-11T05:34:42;6.70;;;5.72;;
58101;SDS011;52034;51.926;6.320;2022-08-11T05:37:45;7.63;;;5.40;;
58101;SDS011;52034;51.926;6.320;2022-08-11T05:39:27;9.70;;;5.97;;
58101;SDS011;52034;51.926;6.320;2022-08-11T05:41:06;7.63;;;5.30;;
58101;SDS011;52034;51.926;6.320;2022-08-11T05:42:48;6.00;;;4.82;;
58101;SDS011;52034;51.926;6.320;2022-08-11T05:44:27;8.00;;;5.30;;
58101;SDS011;52034;51.926;6.320;2022-08-11T05:46:05;8.13;;;5.55;;
58101;SDS011;52034;51.926;6.320;2022-08-11T05:47:44;9.05;;;5.75;;
58101;SDS011;52034;51.926;6.320;2022-08-11T05:49:30;7.07;;;5.25;;
58101;SDS011;52034;51.926;6.320;2022-08-11T05:51:08;7.20;;;5.40;;
58101;SDS011;52034;51.926;6.320;2022-08-11T05:52:46;7.43;;;5.25;;
58101;SDS011;52034;51.926;6.320;2022-08-11T05:54:25;6.40;;;5.50;;
58101;SDS011;52034;51.926;6.320;2022-08-11T05:56:04;7.20;;;5.50;;
58101;SDS011;52034;51.926;6.320;2022-08-11T05:57:39;7.50;;;5.47;;
58101;SDS011;52034;51.926;6.320;2022-08-11T05:58:58;7.72;;;5.38;;
58101;SDS011;52034;51.926;6.320;2022-08-11T06:00:18;6.40;;;4.93;;
58101;SDS011;52034;51.926;6.320;2022-08-11T06:01:37;6.35;;;5.45;;
58101;SDS011;52034;51.926;6.320;2022-08-11T06:02:58;6.80;;;5.32;;
58101;SDS011;52034;51.926;6.320;2022-08-11T06:04:20;10.27;;;5.82;;
58101;SDS011;52034;51.926;6.320;2022-08-11T06:05:40;8.18;;;5.70;;
58101;SDS011;52034;51.926;6.320;2022-08-11T06:07:04;5.93;;;4.78;;
58101;SDS011;52034;51.926;6.320;2022-08-11T06:08:30;7.28;;;5.30;;
58101;SDS011;52034;51.926;6.320;2022-08-11T06:09:53;8.65;;;5.93;;
58101;SDS011;52034;51.926;6.320;2022-08-11T06:11:12;9.27;;;5.60;;
58101;SDS011;52034;51.926;6.320;2022-08-11T06:12:34;6.78;;;5.22;;
58101;SDS011;52034;51.926;6.320;2022-08-11T06:13:55;6.65;;;5.10;;
58101;SDS011;52034;51.926;6.320;2022-08-11T06:15:14;8.02;;;5.03;;
58101;SDS011;52034;51.926;6.320;2022-08-11T06:16:34;7.00;;;5.45;;
58101;SDS011;52034;51.926;6.320;2022-08-11T06:17:53;7.40;;;5.15;;
58101;SDS011;52034;51.926;6.320;2022-08-11T06:19:13;7.63;;;5.03;;
58101;SDS011;52034;51.926;6.320;2022-08-11T06:20:33;9.48;;;5.40;;
58101;SDS011;52034;51.926;6.320;2022-08-11T06:22:09;7.95;;;5.50;;
58101;SDS011;52034;51.926;6.320;2022-08-11T06:23:31;6.82;;;5.38;;
58101;SDS011;52034;51.926;6.320;2022-08-11T06:24:57;7.57;;;5.28;;
58101;SDS011;52034;51.926;6.320;2022-08-11T06:26:18;7.97;;;5.47;;
58101;SDS011;52034;51.926;6.320;2022-08-11T06:27:38;6.43;;;5.13;;
58101;SDS011;52034;51.926;6.320;2022-08-11T06:28:58;7.60;;;5.15;;
58101;SDS011;52034;51.926;6.320;2022-08-11T06:30:21;8.02;;;5.15;;
58101;SDS011;52034;51.926;6.320;2022-08-11T06:31:56;7.85;;;5.22;;
58101;SDS011;52034;51.926;6.320;2022-08-11T06:33:30;9.00;;;5.10;;
58101;SDS011;52034;51.926;6.320;2022-08-11T06:36:34;7.60;;;5.10;;
58101;SDS011;52034;51.926;6.320;2022-08-11T06:38:05;7.60;;;5.47;;
58101;SDS011;52034;51.926;6.320;2022-08-11T06:39:27;9.70;;;4.93;;
58101;SDS011;52034;51.926;6.320;2022-08-11T06:41:11;10.23;;;5.18;;
58101;SDS011;52034;51.926;6.320;2022-08-11T06:42:53;6.38;;;5.30;;
58101;SDS011;52034;51.926;6.320;2022-08-11T06:44:39;6.85;;;5.15;;
58101;SDS011;52034;51.926;6.320;2022-08-11T06:46:00;6.50;;;4.97;;
58101;SDS011;52034;51.926;6.320;2022-08-11T06:47:21;7.57;;;4.68;;
58101;SDS011;52034;51.926;6.320;2022-08-11T06:48:40;9.38;;;5.32;;
58101;SDS011;52034;51.926;6.320;2022-08-11T06:50:00;7.55;;;5.30;;
58101;SDS011;52034;51.926;6.320;2022-08-11T06:51:39;6.30;;;4.85;;
58101;SDS011;52034;51.926;6.320;2022-08-11T06:52:58;8.75;;;5.03;;
58101;SDS011;52034;51.926;6.320;2022-08-11T06:54:17;6.43;;;4.35;;
58101;SDS011;52034;51.926;6.320;2022-08-11T06:55:40;6.90;;;4.68;;
58101;SDS011;52034;51.926;6.320;2022-08-11T06:57:20;8.82;;;5.05;;
58101;SDS011;52034;51.926;6.320;2022-08-11T06:58:58;10.93;;;5.25;;
58101;SDS011;52034;51.926;6.320;2022-08-11T07:00:37;8.75;;;4.57;;
58101;SDS011;52034;51.926;6.320;2022-08-11T07:03:47;5.40;;;4.63;;
58101;SDS011;52034;51.926;6.320;2022-08-11T07:08:54;6.22;;;4.47;;
58101;SDS011;52034;51.926;6.320;2022-08-11T07:12:42;8.65;;;4.68;;
58101;SDS011;52034;51.926;6.320;2022-08-11T07:14:22;6.47;;;4.30;;
58101;SDS011;52034;51.926;6.320;2022-08-11T07:16:02;7.45;;;3.72;;
58101;SDS011;52034;51.926;6.320;2022-08-11T07:17:22;5.72;;;4.30;;
58101;SDS011;52034;51.926;6.320;2022-08-11T07:18:41;9.60;;;4.35;;
58101;SDS011;52034;51.926;6.320;2022-08-11T07:20:19;7.50;;;4.03;;
58101;SDS011;52034;51.926;6.320;2022-08-11T07:21:57;4.68;;;3.72;;
58101;SDS011;52034;51.926;6.320;2022-08-11T07:23:37;6.38;;;3.40;;
58101;SDS011;52034;51.926;6.320;2022-08-11T07:25:15;7.97;;;3.75;;
58101;SDS011;52034;51.926;6.320;2022-08-11T07:26:53;5.68;;;4.05;;
58101;SDS011;52034;51.926;6.320;2022-08-11T07:28:32;4.50;;;3.83;;
58101;SDS011;52034;51.926;6.320;2022-08-11T07:30:11;7.90;;;3.67;;
58101;SDS011;52034;51.926;6.320;2022-08-11T07:31:34;5.75;;;3.55;;
58101;SDS011;52034;51.926;6.320;2022-08-11T07:32:58;6.55;;;3.70;;
58101;SDS011;52034;51.926;6.320;2022-08-11T07:34:23;4.60;;;3.45;;
58101;SDS011;52034;51.926;6.320;2022-08-11T07:35:47;5.90;;;3.50;;
58101;SDS011;52034;51.926;6.320;2022-08-11T07:37:08;6.63;;;3.72;;
58101;SDS011;52034;51.926;6.320;2022-08-11T07:38:36;6.28;;;3.83;;
58101;SDS011;52034;51.926;6.320;2022-08-11T07:40:02;5.95;;;3.40;;
58101;SDS011;52034;51.926;6.320;2022-08-11T07:41:22;5.30;;;3.38;;
58101;SDS011;52034;51.926;6.320;2022-08-11T07:42:42;6.68;;;3.00;;
58101;SDS011;52034;51.926;6.320;2022-08-11T07:44:04;4.57;;;3.17;;
58101;SDS011;52034;51.926;6.320;2022-08-11T07:45:26;5.10;;;3.15;;
58101;SDS011;52034;51.926;6.320;2022-08-11T07:47:04;4.78;;;3.30;;
58101;SDS011;52034;51.926;6.320;2022-08-11T07:48:42;5.75;;;3.15;;
58101;SDS011;52034;51.926;6.320;2022-08-11T07:50:20;6.68;;;3.40;;
58101;SDS011;52034;51.926;6.320;2022-08-11T07:51:58;6.00;;;3.30;;
58101;SDS011;52034;51.926;6.320;2022-08-11T07:53:37;3.58;;;3.10;;
58101;SDS011;52034;51.926;6.320;2022-08-11T07:55:07;5.93;;;3.55;;
58101;SDS011;52034;51.926;6.320;2022-08-11T07:56:34;6.72;;;3.33;;
58101;SDS011;52034;51.926;6.320;2022-08-11T07:57:53;4.63;;;2.90;;
58101;SDS011;52034;51.926;6.320;2022-08-11T07:59:31;9.07;;;3.10;;
58101;SDS011;52034;51.926;6.320;2022-08-11T08:01:10;6.13;;;3.30;;
58101;SDS011;52034;51.926;6.320;2022-08-11T08:02:48;5.15;;;2.78;;
58101;SDS011;52034;51.926;6.320;2022-08-11T08:04:26;6.63;;;3.20;;
58101;SDS011;52034;51.926;6.320;2022-08-11T08:06:04;5.43;;;3.05;;
58101;SDS011;52034;51.926;6.320;2022-08-11T08:07:42;3.60;;;2.70;;
58101;SDS011;52034;51.926;6.320;2022-08-11T08:09:20;5.53;;;3.00;;
58101;SDS011;52034;51.926;6.320;2022-08-11T08:10:59;3.00;;;2.63;;
58101;SDS011;52034;51.926;6.320;2022-08-11T08:12:37;4.68;;;3.22;;
58101;SDS011;52034;51.926;6.320;2022-08-11T08:14:11;6.68;;;3.08;;
58101;SDS011;52034;51.926;6.320;2022-08-11T08:15:49;6.78;;;3.47;;
58101;SDS011;52034;51.926;6.320;2022-08-11T08:17:28;3.75;;;2.97;;
58101;SDS011;52034;51.926;6.320;2022-08-11T08:19:06;6.80;;;3.08;;
58101;SDS011;52034;51.926;6.320;2022-08-11T08:21:56;3.83;;;3.13;;
58101;SDS011;52034;51.926;6.320;2022-08-11T08:23:16;6.32;;;2.88;;
58101;SDS011;52034;51.926;6.320;2022-08-11T08:24:37;6.03;;;3.28;;
58101;SDS011;52034;51.926;6.320;2022-08-11T08:25:57;7.57;;;3.42;;
58101;SDS011;52034;51.926;6.320;2022-08-11T08:27:19;5.53;;;3.20;;
58101;SDS011;52034;51.926;6.320;2022-08-11T08:28:38;5.57;;;2.90;;
58101;SDS011;52034;51.926;6.320;2022-08-11T08:29:58;7.32;;;2.95;;
58101;SDS011;52034;51.926;6.320;2022-08-11T08:31:36;6.20;;;2.92;;
58101;SDS011;52034;51.926;6.320;2022-08-11T08:32:55;6.03;;;3.10;;
58101;SDS011;52034;51.926;6.320;2022-08-11T08:34:16;12.70;;;3.10;;
58101;SDS011;52034;51.926;6.320;2022-08-11T08:35:36;3.60;;;2.72;;
58101;SDS011;52034;51.926;6.320;2022-08-11T08:36:55;3.75;;;2.55;;
58101;SDS011;52034;51.926;6.320;2022-08-11T08:38:15;3.95;;;2.80;;
58101;SDS011;52034;51.926;6.320;2022-08-11T08:39:34;6.90;;;3.08;;
58101;SDS011;52034;51.926;6.320;2022-08-11T08:40:55;4.13;;;3.08;;
58101;SDS011;52034;51.926;6.320;2022-08-11T08:42:34;3.92;;;3.03;;
58101;SDS011;52034;51.926;6.320;2022-08-11T08:44:00;3.67;;;2.80;;
58101;SDS011;52034;51.926;6.320;2022-08-11T08:45:24;6.03;;;2.75;;
58101;SDS011;52034;51.926;6.320;2022-08-11T08:46:46;6.07;;;3.03;;
58101;SDS011;52034;51.926;6.320;2022-08-11T08:48:14;7.40;;;3.05;;
58101;SDS011;52034;51.926;6.320;2022-08-11T08:49:35;6.40;;;2.60;;
58101;SDS011;52034;51.926;6.320;2022-08-11T08:50:56;5.13;;;2.90;;
58101;SDS011;52034;51.926;6.320;2022-08-11T08:52:39;3.55;;;2.50;;
58101;SDS011;52034;51.926;6.320;2022-08-11T08:54:06;6.35;;;2.70;;
58101;SDS011;52034;51.926;6.320;2022-08-11T08:55:30;6.35;;;2.65;;
58101;SDS011;52034;51.926;6.320;2022-08-11T08:56:51;7.00;;;2.75;;
58101;SDS011;52034;51.926;6.320;2022-08-11T08:58:13;4.70;;;3.00;;
58101;SDS011;52034;51.926;6.320;2022-08-11T08:59:35;5.30;;;2.42;;
58101;SDS011;52034;51.926;6.320;2022-08-11T09:00:57;8.20;;;2.78;;
58101;SDS011;52034;51.926;6.320;2022-08-11T09:02:18;4.65;;;3.17;;
58101;SDS011;52034;51.926;6.320;2022-08-11T09:03:41;5.80;;;2.95;;
58101;SDS011;52034;51.926;6.320;2022-08-11T09:05:04;7.30;;;3.22;;
58101;SDS011;52034;51.926;6.320;2022-08-11T09:06:29;5.20;;;2.85;;
58101;SDS011;52034;51.926;6.320;2022-08-11T09:07:49;4.88;;;2.95;;
58101;SDS011;52034;51.926;6.320;2022-08-11T09:09:12;4.03;;;2.70;;
58101;SDS011;52034;51.926;6.320;2022-08-11T09:10:32;5.00;;;3.15;;
58101;SDS011;52034;51.926;6.320;2022-08-11T09:11:51;6.68;;;3.03;;
58101;SDS011;52034;51.926;6.320;2022-08-11T09:13:11;3.83;;;2.92;;
58101;SDS011;52034;51.926;6.320;2022-08-11T09:14:32;8.68;;;3.05;;
58101;SDS011;52034;51.926;6.320;2022-08-11T09:16:12;4.95;;;2.65;;
58101;SDS011;52034;51.926;6.320;2022-08-11T09:17:33;4.95;;;3.05;;
58101;SDS011;52034;51.926;6.320;2022-08-11T09:18:54;4.65;;;2.75;;
58101;SDS011;52034;51.926;6.320;2022-08-11T09:21:39;5.63;;;2.95;;
58101;SDS011;52034;51.926;6.320;2022-08-11T09:24:38;3.97;;;2.67;;
58101;SDS011;52034;51.926;6.320;2022-08-11T09:26:16;5.18;;;3.17;;
58101;SDS011;52034;51.926;6.320;2022-08-11T09:27:55;5.38;;;3.22;;
58101;SDS011;52034;51.926;6.320;2022-08-11T09:29:14;4.88;;;3.33;;
58101;SDS011;52034;51.926;6.320;2022-08-11T09:30:34;6.03;;;3.22;;
58101;SDS011;52034;51.926;6.320;2022-08-11T09:31:53;5.78;;;3.03;;
58101;SDS011;52034;51.926;6.320;2022-08-11T09:33:15;3.45;;;3.15;;
58101;SDS011;52034;51.926;6.320;2022-08-11T09:34:34;5.32;;;3.60;;
58101;SDS011;52034;51.926;6.320;2022-08-11T09:35:55;4.72;;;3.13;;
58101;SDS011;52034;51.926;6.320;2022-08-11T09:37:14;6.38;;;3.00;;
58101;SDS011;52034;51.926;6.320;2022-08-11T09:38:52;7.63;;;3.30;;
58101;SDS011;52034;51.926;6.320;2022-08-11T09:40:30;4.53;;;2.83;;
58101;SDS011;52034;51.926;6.320;2022-08-11T09:41:51;5.10;;;2.83;;
58101;SDS011;52034;51.926;6.320;2022-08-11T09:43:11;5.55;;;3.10;;
58101;SDS011;52034;51.926;6.320;2022-08-11T09:44:54;5.18;;;2.97;;
58101;SDS011;52034;51.926;6.320;2022-08-11T09:46:13;5.10;;;3.08;;
58101;SDS011;52034;51.926;6.320;2022-08-11T09:47:33;4.28;;;3.63;;
58101;SDS011;52034;51.926;6.320;2022-08-11T09:48:54;4.43;;;2.95;;
58101;SDS011;52034;51.926;6.320;2022-08-11T09:50:14;7.63;;;3.08;;
58101;SDS011;52034;51.926;6.320;2022-08-11T09:51:35;4.25;;;3.05;;
58101;SDS011;52034;51.926;6.320;2022-08-11T09:52:54;3.72;;;3.15;;
58101;SDS011;52034;51.926;6.320;2022-08-11T09:54:13;4.53;;;2.83;;
58101;SDS011;52034;51.926;6.320;2022-08-11T09:55:34;3.67;;;2.90;;
58101;SDS011;52034;51.926;6.320;2022-08-11T09:56:55;4.72;;;2.90;;
58101;SDS011;52034;51.926;6.320;2022-08-11T09:58:34;8.88;;;3.30;;
58101;SDS011;52034;51.926;6.320;2022-08-11T09:59:53;6.25;;;3.50;;
58101;SDS011;52034;51.926;6.320;2022-08-11T10:01:12;4.95;;;2.75;;
58101;SDS011;52034;51.926;6.320;2022-08-11T10:02:45;6.97;;;3.25;;
58101;SDS011;52034;51.926;6.320;2022-08-11T10:04:07;2.85;;;2.60;;
58101;SDS011;52034;51.926;6.320;2022-08-11T10:05:33;4.45;;;3.08;;
58101;SDS011;52034;51.926;6.320;2022-08-11T10:07:12;5.75;;;3.03;;
58101;SDS011;52034;51.926;6.320;2022-08-11T10:08:33;5.75;;;2.95;;
58101;SDS011;52034;51.926;6.320;2022-08-11T10:10:02;6.95;;;3.22;;
58101;SDS011;52034;51.926;6.320;2022-08-11T10:11:23;5.93;;;3.60;;
58101;SDS011;52034;51.926;6.320;2022-08-11T10:12:45;4.68;;;2.92;;
58101;SDS011;52034;51.926;6.320;2022-08-11T10:14:06;8.25;;;3.10;;
58101;SDS011;52034;51.926;6.320;2022-08-11T10:15:44;5.45;;;2.75;;
58101;SDS011;52034;51.926;6.320;2022-08-11T10:17:06;3.42;;;3.13;;
58101;SDS011;52034;51.926;6.320;2022-08-11T10:18:33;3.88;;;3.00;;
58101;SDS011;52034;51.926;6.320;2022-08-11T10:19:59;4.30;;;2.70;;
58101;SDS011;52034;51.926;6.320;2022-08-11T10:22:55;4.32;;;2.70;;
58101;SDS011;52034;51.926;6.320;2022-08-11T10:24:35;4.60;;;2.75;;
58101;SDS011;52034;51.926;6.320;2022-08-11T10:26:13;5.82;;;2.80;;
58101;SDS011;52034;51.926;6.320;2022-08-11T10:27:51;3.88;;;2.90;;
58101;SDS011;52034;51.926;6.320;2022-08-11T10:29:15;3.28;;;2.85;;
58101;SDS011;52034;51.926;6.320;2022-08-11T10:30:54;5.43;;;2.72;;
58101;SDS011;52034;51.926;6.320;2022-08-11T10:32:32;4.95;;;2.95;;
58101;SDS011;52034;51.926;6.320;2022-08-11T10:34:10;4.22;;;2.60;;
58101;SDS011;52034;51.926;6.320;2022-08-11T10:35:30;6.28;;;2.90;;
58101;SDS011;52034;51.926;6.320;2022-08-11T10:36:50;4.80;;;2.38;;
58101;SDS011;52034;51.926;6.320;2022-08-11T10:38:12;3.40;;;2.42;;
58101;SDS011;52034;51.926;6.320;2022-08-11T10:39:33;3.33;;;2.40;;
58101;SDS011;52034;51.926;6.320;2022-08-11T10:40:52;6.55;;;2.58;;
58101;SDS011;52034;51.926;6.320;2022-08-11T10:42:31;4.45;;;2.72;;
58101;SDS011;52034;51.926;6.320;2022-08-11T10:44:09;6.10;;;2.95;;
58101;SDS011;52034;51.926;6.320;2022-08-11T10:45:29;4.93;;;2.78;;
58101;SDS011;52034;51.926;6.320;2022-08-11T10:47:12;4.72;;;2.60;;
58101;SDS011;52034;51.926;6.320;2022-08-11T10:48:51;4.03;;;2.60;;
58101;SDS011;52034;51.926;6.320;2022-08-11T10:50:11;3.95;;;2.60;;
58101;SDS011;52034;51.926;6.320;2022-08-11T10:51:49;6.38;;;3.00;;
58101;SDS011;52034;51.926;6.320;2022-08-11T10:53:28;6.10;;;2.53;;
58101;SDS011;52034;51.926;6.320;2022-08-11T10:55:06;3.97;;;2.75;;
58101;SDS011;52034;51.926;6.320;2022-08-11T10:56:44;4.10;;;2.80;;
58101;SDS011;52034;51.926;6.320;2022-08-11T10:58:21;7.13;;;2.67;;
58101;SDS011;52034;51.926;6.320;2022-08-11T11:00:00;4.55;;;2.58;;
58101;SDS011;52034;51.926;6.320;2022-08-11T11:01:27;2.92;;;2.28;;
58101;SDS011;52034;51.926;6.320;2022-08-11T11:02:49;4.85;;;2.22;;
58101;SDS011;52034;51.926;6.320;2022-08-11T11:04:14;3.80;;;2.70;;
58101;SDS011;52034;51.926;6.320;2022-08-11T11:05:34;3.03;;;2.40;;
58101;SDS011;52034;51.926;6.320;2022-08-11T11:07:03;6.80;;;2.70;;
58101;SDS011;52034;51.926;6.320;2022-08-11T11:08:25;3.15;;;2.30;;
58101;SDS011;52034;51.926;6.320;2022-08-11T11:10:05;4.53;;;2.60;;
58101;SDS011;52034;51.926;6.320;2022-08-11T11:11:28;5.22;;;2.70;;
58101;SDS011;52034;51.926;6.320;2022-08-11T11:13:10;7.10;;;2.70;;
58101;SDS011;52034;51.926;6.320;2022-08-11T11:14:49;2.63;;;2.35;;
58101;SDS011;52034;51.926;6.320;2022-08-11T11:16:28;5.20;;;2.50;;
58101;SDS011;52034;51.926;6.320;2022-08-11T11:19:56;4.60;;;2.22;;
58101;SDS011;52034;51.926;6.320;2022-08-11T11:21:17;4.15;;;2.20;;
58101;SDS011;52034;51.926;6.320;2022-08-11T11:22:37;4.78;;;2.53;;
58101;SDS011;52034;51.926;6.320;2022-08-11T11:24:11;4.05;;;2.30;;
58101;SDS011;52034;51.926;6.320;2022-08-11T11:26:56;3.17;;;2.40;;
58101;SDS011;52034;51.926;6.320;2022-08-11T11:28:27;3.38;;;2.25;;
58101;SDS011;52034;51.926;6.320;2022-08-11T11:30:05;3.35;;;2.15;;
58101;SDS011;52034;51.926;6.320;2022-08-11T11:31:30;4.65;;;2.35;;
58101;SDS011;52034;51.926;6.320;2022-08-11T11:35:01;4.07;;;2.28;;
58101;SDS011;52034;51.926;6.320;2022-08-11T11:38:25;4.32;;;2.50;;
58101;SDS011;52034;51.926;6.320;2022-08-11T11:39:46;3.58;;;2.20;;
58101;SDS011;52034;51.926;6.320;2022-08-11T11:41:05;7.82;;;2.40;;
58101;SDS011;52034;51.926;6.320;2022-08-11T11:42:44;3.40;;;2.10;;
58101;SDS011;52034;51.926;6.320;2022-08-11T11:44:03;2.95;;;2.13;;
58101;SDS011;52034;51.926;6.320;2022-08-11T11:45:23;6.57;;;2.58;;
58101;SDS011;52034;51.926;6.320;2022-08-11T11:46:45;5.90;;;2.30;;
58101;SDS011;52034;51.926;6.320;2022-08-11T11:48:05;4.78;;;2.17;;
58101;SDS011;52034;51.926;6.320;2022-08-11T11:49:26;3.97;;;2.20;;
58101;SDS011;52034;51.926;6.320;2022-08-11T11:50:46;7.35;;;2.47;;
58101;SDS011;52034;51.926;6.320;2022-08-11T11:52:07;4.80;;;2.40;;
58101;SDS011;52034;51.926;6.320;2022-08-11T11:53:26;3.67;;;2.40;;
58101;SDS011;52034;51.926;6.320;2022-08-11T11:54:46;3.97;;;2.10;;
58101;SDS011;52034;51.926;6.320;2022-08-11T11:56:09;6.45;;;2.22;;
58101;SDS011;52034;51.926;6.320;2022-08-11T11:57:29;5.38;;;2.40;;
58101;SDS011;52034;51.926;6.320;2022-08-11T11:59:07;3.75;;;1.95;;
58101;SDS011;52034;51.926;6.320;2022-08-11T12:00:46;4.18;;;2.10;;
58101;SDS011;52034;51.926;6.320;2022-08-11T12:02:24;6.07;;;2.10;;
58101;SDS011;52034;51.926;6.320;2022-08-11T12:03:46;4.60;;;2.40;;
58101;SDS011;52034;51.926;6.320;2022-08-11T12:05:08;5.50;;;2.30;;
58101;SDS011;52034;51.926;6.320;2022-08-11T12:06:27;4.95;;;2.53;;
58101;SDS011;52034;51.926;6.320;2022-08-11T12:07:47;3.42;;;2.15;;